Impacts TAF Board
For situational awareness. Not to be used for flight planning purposes.
IDs:

KEWR - Newark Intl, NJ, US

Issued at 0247 UTC 20 Mar 2019
Updated at 0258 UTC 20 Mar 2019
Potential Impact None Slight Moderate High
Time0251Z 20/03Z 20/04Z 20/05Z 20/06Z 20/07Z 20/08Z 20/09Z 20/10Z 20/11Z 20/12Z 20/13Z 20/14Z 20/15Z>>
Type OBS PRVL PRVL PRVL PRVL PRVL PRVL PRVL PRVL PRVL PRVL PRVL PRVL PRVL
VIS 10 >6 >6 >6 >6 >6 >6 >6 >6 >6 >6 >6 >6 >6
CIG -- -- -- -- -- -- -- -- -- -- -- -- -- --
Cover CLR FEW SKC SKC SKC SKC SKC SKC SKC SKC SKC SKC SKC FEW
FltCat VFR VFR VFR VFR VFR VFR VFR VFR VFR VFR VFR VFR VFR VFR
WX -- -- -- -- -- -- -- -- -- -- -- -- -- --
WDir 200 170 220 220 220 220 220 220 220 220 220 220 220 220
WSpd 7 4 3 3 3 3 3 3 3 3 3 3 3 7
WGst -- -- -- -- -- -- -- -- -- -- -- -- -- --
Raw TAF
KEWR 200247Z 2003/2106 17004KT P6SM FEW080
  FM200400 22003KT P6SM SKC
  FM201500 22007KT P6SM FEW250
  FM201800 19009KT P6SM SCT200
  FM202300 16007KT P6SM SCT150
  FM210400 14004KT P6SM FEW050 BKN100


Raw METAR
KEWR 200251Z 20007KT 10SM CLR 03/M04 A3042 RMK AO2 SLP299 T00331044 50013 $
KEWR 200151Z 17004KT 10SM FEW080 05/M05 A3042 RMK AO2 SLP300 T00501050 $
KEWR 200051Z 16007KT 10SM FEW080 06/M05 A3040 RMK AO2 SLP293 T00561050 $
KEWR 192351Z 29005KT 10SM FEW080 08/M12 A3038 RMK AO2 SLP287 T00831117 10106 20072 53004 $

METAR Board
Radar Display
Forecast Discussion
For situational awareness. Not to be used for flight planning purposes.